Hudson Bay, Canada
Current Conditions -  °F | °C
As of 5:00 PM on Thursday 27 Nov 2014 (Local Time) from CYBU Reporting Station
Light Snow Light Snow  
Wind Chill: -9°   Ceiling: 15000
Heat Index:   Visibility: 9mi
Dew Point:   Wind: 7mph
Humidity: 85%   Direction: 10°N
Pressure: 30.17"   Gusts: NA
Location:  52.86°N, 102.39°W
Report Text: CYBU 272300Z AUTO 01006KT 9SM -SN BKN150 M16/M18 A3017 RMK SLP257
Loading
Personal Weather Stations






























Interactive Weather Map New forecast layout! Learn more

10-Day Weather Forecast

Advertisements
Track Severe Weather on mobile